createdAt,value
2023-04-15T00:01:08.099Z,99802.03
2023-04-15T00:03:35.171Z,99807.25
2023-04-15T00:06:02.411Z,99804.25
2023-04-15T00:08:29.918Z,99796.25
2023-04-15T00:10:56.550Z,99801.03
2023-04-15T00:13:23.026Z,99800.56
2023-04-15T00:15:49.510Z,99805.97
2023-04-15T00:18:15.942Z,99801.53
2023-04-15T00:20:42.447Z,99797.22
2023-04-15T00:23:08.988Z,99791.00
2023-04-15T00:25:35.589Z,99780.16
2023-04-15T00:28:02.772Z,99789.22
2023-04-15T00:30:29.372Z,99780.28
2023-04-15T00:32:56.046Z,99779.78
2023-04-15T00:35:23.917Z,99776.84
2023-04-15T00:37:51.363Z,99777.88
2023-04-15T00:40:20.072Z,99775.97
2023-04-15T00:42:49.929Z,99776.47
2023-04-15T00:45:16.373Z,99772.94
2023-04-15T00:47:43.631Z,99772.66
2023-04-15T00:50:12.527Z,99761.19
2023-04-15T00:52:40.172Z,99764.69
2023-04-15T00:55:07.578Z,99759.09
2023-04-15T00:57:35.152Z,99757.66
2023-04-15T01:00:02.536Z,99752.06
2023-04-15T01:02:29.477Z,99753.47
2023-04-15T01:04:56.744Z,99761.72
2023-04-15T01:07:23.516Z,99743.03
2023-04-15T01:09:50.115Z,99743.25
2023-04-15T01:12:17.286Z,99748.97
2023-04-15T01:14:43.771Z,99741.63
2023-04-15T01:17:10.407Z,99725.06
2023-04-15T01:19:38.168Z,99726.97
2023-04-15T01:22:05.588Z,99724.47
2023-04-15T01:24:34.088Z,99727.19
2023-04-15T01:27:00.732Z,99731.31
2023-04-15T01:29:27.927Z,99731.81
2023-04-15T01:31:56.729Z,99736.91
2023-04-15T01:34:23.550Z,99734.59
2023-04-15T01:36:52.907Z,99732.59
2023-04-15T01:39:19.436Z,99738.75
2023-04-15T01:41:45.960Z,99729.50
2023-04-15T01:44:12.457Z,99733.94
2023-04-15T01:46:39.389Z,99722.50
2023-04-15T01:49:06.233Z,99729.13
2023-04-15T01:51:32.943Z,99726.13
2023-04-15T01:53:59.389Z,99724.59
2023-04-15T01:56:26.573Z,99716.88
2023-04-15T01:58:53.377Z,99724.50
2023-04-15T02:01:20.106Z,99718.59
2023-04-15T02:03:48.049Z,99722.53
2023-04-15T02:06:14.969Z,99712.50
2023-04-15T02:08:41.612Z,99712.59
2023-04-15T02:11:08.431Z,99711.19
2023-04-15T02:13:34.957Z,99715.69
2023-04-15T02:16:01.559Z,99713.28
2023-04-15T02:18:28.064Z,99698.16
2023-04-15T02:20:54.673Z,99705.25
2023-04-15T02:23:21.171Z,99700.06
2023-04-15T02:25:53.618Z,99712.00
2023-04-15T02:28:21.367Z,99705.34
2023-04-15T02:30:51.059Z,99710.38
2023-04-15T02:33:18.086Z,99704.47
2023-04-15T02:35:45.461Z,99699.34
2023-04-15T02:38:12.211Z,99704.16
2023-04-15T02:40:38.702Z,99695.75
2023-04-15T02:43:07.178Z,99700.03
2023-04-15T02:45:34.158Z,99697.22
2023-04-15T02:48:06.088Z,99693.03
2023-04-15T02:50:32.757Z,99699.25
2023-04-15T02:53:01.185Z,99690.19
2023-04-15T02:55:27.916Z,99696.03
2023-04-15T02:57:59.758Z,99685.50
2023-04-15T03:00:26.489Z,99687.19
2023-04-15T03:03:07.209Z,99685.78
2023-04-15T03:05:33.879Z,99678.19
2023-04-15T03:08:03.535Z,99680.88
2023-04-15T03:10:30.038Z,99674.38
2023-04-15T03:12:56.497Z,99662.22
2023-04-15T03:15:23.154Z,99669.38
2023-04-15T03:17:49.896Z,99664.03
2023-04-15T03:20:16.961Z,99665.34
2023-04-15T03:22:43.652Z,99660.72
2023-04-15T03:25:10.144Z,99650.69
2023-04-15T03:27:37.804Z,99655.78
2023-04-15T03:30:04.520Z,99653.88
2023-04-15T03:32:31.792Z,99658.63
2023-04-15T03:34:58.366Z,99659.41
2023-04-15T03:37:24.840Z,99659.81
2023-04-15T03:39:51.470Z,99663.34
2023-04-15T03:42:17.931Z,99657.38
2023-04-15T03:44:44.482Z,99666.53
2023-04-15T03:47:10.950Z,99675.75
2023-04-15T03:49:37.622Z,99672.47
2023-04-15T03:52:04.418Z,99665.81
2023-04-15T03:54:30.958Z,99676.88
2023-04-15T03:57:00.763Z,99673.38
2023-04-15T03:59:27.368Z,99679.34
2023-04-15T04:01:53.902Z,99671.16
2023-04-15T04:04:20.392Z,99672.97
2023-04-15T04:06:46.918Z,99669.84
2023-04-15T04:09:13.427Z,99665.13
2023-04-15T04:11:39.865Z,99671.56
2023-04-15T04:14:07.107Z,99680.69
2023-04-15T04:16:33.607Z,99672.34
2023-04-15T04:19:00.316Z,99675.28
2023-04-15T04:21:27.151Z,99679.59
2023-04-15T04:23:53.694Z,99681.69
2023-04-15T04:26:20.236Z,99675.84
2023-04-15T04:28:46.702Z,99679.06
2023-04-15T04:31:13.408Z,99677.97
2023-04-15T04:33:40.041Z,99672.25
2023-04-15T04:36:06.788Z,99676.16
2023-04-15T04:38:33.279Z,99680.69
2023-04-15T04:41:00.369Z,99674.66
2023-04-15T04:43:27.462Z,99677.69
2023-04-15T04:45:53.983Z,99678.88
2023-04-15T04:48:20.649Z,99679.69
2023-04-15T04:50:47.261Z,99677.97
2023-04-15T04:53:13.859Z,99671.47
2023-04-15T04:55:40.529Z,99674.75
2023-04-15T04:58:07.053Z,99674.97
2023-04-15T05:00:33.706Z,99678.97
2023-04-15T05:03:01.014Z,99677.69
2023-04-15T05:05:27.607Z,99679.78
2023-04-15T05:07:54.062Z,99668.66
2023-04-15T05:10:21.066Z,99668.16
2023-04-15T05:12:47.655Z,99673.94
2023-04-15T05:15:14.142Z,99678.97
2023-04-15T05:17:40.615Z,99677.06
2023-04-15T05:20:07.944Z,99667.53
2023-04-15T05:22:34.620Z,99671.34
2023-04-15T05:25:01.110Z,99670.91
2023-04-15T05:27:27.658Z,99658.72
2023-04-15T05:29:54.098Z,99665.13
2023-04-15T05:32:20.710Z,99661.13
2023-04-15T05:34:47.241Z,99668.94
2023-04-15T05:37:13.870Z,99667.84
2023-04-15T05:39:40.414Z,99663.72
2023-04-15T05:42:07.008Z,99667.03
2023-04-15T05:44:33.430Z,99659.88
2023-04-15T05:47:00.065Z,99666.09
2023-04-15T05:49:27.559Z,99668.16
2023-04-15T05:51:54.298Z,99661.81
2023-04-15T05:54:22.539Z,99671.53
2023-04-15T05:56:49.409Z,99671.22
2023-04-15T05:59:16.067Z,99672.66
2023-04-15T06:01:43.028Z,99674.13
2023-04-15T06:04:09.810Z,99671.72
2023-04-15T06:06:36.453Z,99677.66
2023-04-15T06:09:03.183Z,99674.34
2023-04-15T06:11:29.809Z,99677.94
2023-04-15T06:13:56.613Z,99677.94
2023-04-15T06:16:26.436Z,99672.22
2023-04-15T06:18:52.938Z,99666.50
2023-04-15T06:21:19.567Z,99666.31
2023-04-15T06:23:46.306Z,99664.78
2023-04-15T06:26:12.805Z,99661.88
2023-04-15T06:28:39.237Z,99668.09
2023-04-15T06:31:06.016Z,99668.91
2023-04-15T06:33:32.487Z,99661.75
2023-04-15T06:35:59.110Z,99661.59
2023-04-15T06:38:25.885Z,99660.47
2023-04-15T06:40:52.504Z,99666.38
2023-04-15T06:43:19.740Z,99669.28
2023-04-15T06:45:46.309Z,99661.09
2023-04-15T06:48:13.082Z,99673.72
2023-04-15T06:50:39.652Z,99671.88
2023-04-15T06:53:06.625Z,99661.66
2023-04-15T06:55:33.983Z,99662.44
2023-04-15T06:58:01.202Z,99666.75
2023-04-15T07:00:28.690Z,99665.25
2023-04-15T07:02:55.856Z,99665.66
2023-04-15T07:05:22.564Z,99667.25
2023-04-15T07:07:48.995Z,99671.88
2023-04-15T07:10:15.893Z,99665.97
2023-04-15T07:12:42.525Z,99673.00
2023-04-15T07:15:09.482Z,99669.84
2023-04-15T07:17:36.070Z,99675.91
2023-04-15T07:20:03.094Z,99677.47
2023-04-15T07:22:29.624Z,99681.91
2023-04-15T07:24:56.317Z,99683.69
2023-04-15T07:27:22.993Z,99678.28
2023-04-15T07:29:51.469Z,99683.69
2023-04-15T07:32:18.224Z,99681.91
2023-04-15T07:34:44.828Z,99684.94
2023-04-15T07:37:11.349Z,99688.31
2023-04-15T07:39:38.026Z,99690.31
2023-04-15T07:42:04.697Z,99695.84
2023-04-15T07:44:31.644Z,99693.31
2023-04-15T07:46:58.073Z,99697.63
2023-04-15T07:49:24.521Z,99701.16
2023-04-15T07:51:51.467Z,99703.06
2023-04-15T07:54:18.081Z,99699.75
2023-04-15T07:56:44.538Z,99699.75
2023-04-15T07:59:12.352Z,99696.53
2023-04-15T08:01:38.960Z,99696.03
2023-04-15T08:04:07.849Z,99704.84
2023-04-15T08:06:34.729Z,99704.72
2023-04-15T08:09:01.786Z,99700.41
2023-04-15T08:11:28.613Z,99705.22
2023-04-15T08:13:55.356Z,99704.13
2023-04-15T08:16:27.920Z,99696.78
2023-04-15T08:18:56.760Z,99702.19
2023-04-15T08:21:24.620Z,99710.63
2023-04-15T08:23:52.843Z,99710.53
2023-04-15T08:26:20.988Z,99713.72
2023-04-15T08:28:47.775Z,99712.59
2023-04-15T08:31:15.586Z,99713.25
2023-04-15T08:33:42.600Z,99717.88
2023-04-15T08:36:09.421Z,99714.50
2023-04-15T08:38:36.570Z,99715.81
2023-04-15T08:41:11.810Z,99718.03
2023-04-15T08:43:48.969Z,99710.09
2023-04-15T08:46:16.688Z,99724.16
2023-04-15T08:48:44.187Z,99722.72
2023-04-15T08:51:10.949Z,99718.72
2023-04-15T08:53:37.677Z,99720.03
2023-04-15T08:56:07.516Z,99721.13
2023-04-15T08:58:35.655Z,99732.94
2023-04-15T09:01:02.482Z,99736.75
2023-04-15T09:03:29.323Z,99736.59
2023-04-15T09:05:57.314Z,99743.13
2023-04-15T09:08:23.881Z,99745.84
2023-04-15T09:10:50.506Z,99744.22
2023-04-15T09:13:17.030Z,99747.13
2023-04-15T09:15:43.993Z,99740.28
2023-04-15T09:18:13.557Z,99737.66
2023-04-15T09:20:44.193Z,99737.00
2023-04-15T09:23:15.689Z,99744.53
2023-04-15T09:25:42.626Z,99743.56
2023-04-15T09:28:09.561Z,99746.44
2023-04-15T09:30:36.768Z,99750.75
2023-04-15T09:33:10.932Z,99752.56
2023-04-15T09:35:37.599Z,99752.25
2023-04-15T09:38:07.254Z,99745.09
2023-04-15T09:40:37.544Z,99761.34
2023-04-15T09:43:05.472Z,99760.94
2023-04-15T09:45:33.425Z,99766.66
2023-04-15T09:48:15.466Z,99761.06
2023-04-15T09:50:43.922Z,99770.38
2023-04-15T09:53:12.393Z,99765.88
2023-04-15T09:55:38.792Z,99767.34
2023-04-15T09:58:22.088Z,99762.25
2023-04-15T10:00:50.386Z,99769.75
2023-04-15T10:03:25.129Z,99768.31
2023-04-15T10:05:57.141Z,99773.75
2023-04-15T10:08:25.854Z,99775.66
2023-04-15T10:10:53.182Z,99776.47
2023-04-15T10:13:24.739Z,99772.03
2023-04-15T10:16:00.807Z,99785.28
2023-04-15T10:18:28.761Z,99784.78
2023-04-15T10:20:55.997Z,99788.00
2023-04-15T10:23:24.453Z,99786.72
2023-04-15T10:25:56.810Z,99784.19
2023-04-15T10:28:23.255Z,99787.69
2023-04-15T10:30:50.046Z,99791.06
2023-04-15T10:33:24.496Z,99794.28
2023-04-15T10:35:52.761Z,99797.59
2023-04-15T10:38:34.566Z,99795.88
2023-04-15T10:41:21.011Z,99803.56
2023-04-15T10:43:52.792Z,99804.38
2023-04-15T10:46:23.984Z,99801.16
2023-04-15T10:48:52.916Z,99800.41
2023-04-15T10:51:30.509Z,99801.97
2023-04-15T10:54:00.941Z,99797.53
2023-04-15T10:56:31.375Z,99807.78
2023-04-15T10:59:01.418Z,99808.28
2023-04-15T11:01:50.699Z,99807.16
2023-04-15T11:04:53.405Z,99812.75
2023-04-15T11:07:35.967Z,99811.34
2023-04-15T11:10:03.017Z,99810.22
2023-04-15T11:12:36.376Z,99814.53
2023-04-15T11:15:32.402Z,99821.44
2023-04-15T11:18:24.558Z,99816.50
2023-04-15T11:20:52.043Z,99816.19
2023-04-15T11:23:20.014Z,99817.50
2023-04-15T11:25:46.464Z,99813.34
2023-04-15T11:28:13.774Z,99823.75
2023-04-15T11:30:40.640Z,99825.34
2023-04-15T11:33:09.859Z,99819.94
2023-04-15T11:35:36.673Z,99833.50
2023-04-15T11:38:10.057Z,99831.28
2023-04-15T11:40:37.563Z,99832.41
2023-04-15T11:43:09.392Z,99833.69
2023-04-15T11:45:37.260Z,99836.09
2023-04-15T11:48:12.107Z,99837.41
2023-04-15T11:50:41.048Z,99838.50
2023-04-15T11:53:10.557Z,99845.69
2023-04-15T11:55:44.778Z,99844.31
2023-04-15T11:58:23.275Z,99843.38
2023-04-15T12:00:54.119Z,99849.78
2023-04-15T12:03:27.343Z,99860.34
2023-04-15T12:06:17.261Z,99855.72
2023-04-15T12:08:56.030Z,99860.53
2023-04-15T12:11:36.101Z,99861.81
2023-04-15T12:14:06.739Z,99865.03
2023-04-15T12:16:49.175Z,99868.53
2023-04-15T12:19:39.063Z,99881.50
2023-04-15T12:22:10.186Z,99887.41
2023-04-15T12:24:37.622Z,99883.09
2023-04-15T12:27:05.645Z,99889.63
2023-04-15T12:29:34.267Z,99892.84
2023-04-15T12:32:14.997Z,99896.19
2023-04-15T12:34:43.579Z,99899.09
2023-04-15T12:37:13.087Z,99905.78
2023-04-15T12:39:42.024Z,99902.44
2023-04-15T12:42:09.104Z,99907.88
2023-04-15T12:44:36.649Z,99912.34
2023-04-15T12:47:03.436Z,99917.13
2023-04-15T12:49:32.510Z,99922.09
2023-04-15T12:52:00.693Z,99926.28
2023-04-15T12:54:27.834Z,99926.75
2023-04-15T12:56:54.702Z,99931.41
2023-04-15T12:59:21.663Z,99932.50
2023-04-15T13:01:49.006Z,99936.22
2023-04-15T13:04:16.614Z,99926.94
2023-04-15T13:06:43.716Z,99931.63
2023-04-15T13:09:10.258Z,99938.84
2023-04-15T13:11:36.812Z,99940.91
2023-04-15T13:14:06.165Z,99937.38
2023-04-15T13:16:33.348Z,99932.44
2023-04-15T13:19:00.977Z,99941.28
2023-04-15T13:21:28.352Z,99937.44
2023-04-15T13:23:55.615Z,99941.47
2023-04-15T13:26:22.203Z,99944.50
2023-04-15T13:28:48.581Z,99950.09
2023-04-15T13:31:15.225Z,99957.78
2023-04-15T13:33:41.656Z,99954.72
2023-04-15T13:36:08.422Z,99960.84
2023-04-15T13:38:35.170Z,99961.00
2023-04-15T13:41:01.617Z,99965.28
2023-04-15T13:43:28.509Z,99961.63
2023-04-15T13:45:55.290Z,99969.19
2023-04-15T13:48:21.863Z,99961.16
2023-04-15T13:50:48.316Z,99963.25
2023-04-15T13:53:16.955Z,99969.97
2023-04-15T13:55:43.423Z,99967.72
2023-04-15T13:58:10.268Z,99972.03
2023-04-15T14:00:36.867Z,99973.66
2023-04-15T14:03:04.025Z,99973.81
2023-04-15T14:05:32.915Z,99982.91
2023-04-15T14:08:01.413Z,99982.91
2023-04-15T14:10:27.814Z,99973.28
2023-04-15T14:12:54.291Z,99989.75
2023-04-15T14:15:21.375Z,99992.94
2023-04-15T14:17:47.878Z,99995.19
2023-04-15T14:20:16.756Z,99994.88
2023-04-15T14:22:43.714Z,99996.97
2023-04-15T14:25:11.716Z,99990.25
2023-04-15T14:27:43.895Z,100005.94
2023-04-15T14:30:10.902Z,100001.94
2023-04-15T14:32:37.410Z,100012.69
2023-04-15T14:35:04.366Z,100016.38
2023-04-15T14:37:31.022Z,100014.75
2023-04-15T14:39:57.538Z,100027.72
2023-04-15T14:42:24.024Z,100023.06
2023-04-15T14:44:50.519Z,100029.31
2023-04-15T14:47:17.146Z,100039.41
2023-04-15T14:49:44.057Z,100036.19
2023-04-15T14:52:10.530Z,100035.50
2023-04-15T14:54:36.989Z,100041.94
2023-04-15T14:57:09.073Z,100045.09
2023-04-15T14:59:35.828Z,100047.94
2023-04-15T15:02:02.364Z,100041.59
2023-04-15T15:04:29.389Z,100049.09
2023-04-15T15:06:56.143Z,100067.81
2023-04-15T15:09:23.858Z,100059.16
2023-04-15T15:11:50.834Z,100059.34
2023-04-15T15:14:17.349Z,100067.81
2023-04-15T15:16:44.022Z,100072.16
2023-04-15T15:19:10.584Z,100077.28
2023-04-15T15:21:37.455Z,100075.69
2023-04-15T15:24:04.044Z,100081.13
2023-04-15T15:26:30.461Z,100080.81
2023-04-15T15:28:57.000Z,100085.13
2023-04-15T15:31:23.708Z,100084.03
2023-04-15T15:33:51.663Z,100092.19
2023-04-15T15:36:18.130Z,100094.59
2023-04-15T15:38:44.600Z,100099.72
2023-04-15T15:41:11.895Z,100103.25
2023-04-15T15:43:38.286Z,100099.72
2023-04-15T15:46:04.743Z,100097.81
2023-04-15T15:48:31.228Z,100107.09
2023-04-15T15:50:57.758Z,100110.91
2023-04-15T15:53:25.874Z,100107.88
2023-04-15T15:55:53.846Z,100117.97
2023-04-15T15:58:21.200Z,100125.63
2023-04-15T16:00:47.836Z,100115.56
2023-04-15T16:03:15.443Z,100129.16
2023-04-15T16:05:42.223Z,100131.56
2023-04-15T16:08:08.711Z,100127.66
2023-04-15T16:10:35.298Z,100133.59
2023-04-15T16:13:02.395Z,100135.22
2023-04-15T16:15:28.991Z,100133.78
2023-04-15T16:17:55.605Z,100131.88
2023-04-15T16:20:22.082Z,100127.25
2023-04-15T16:22:48.778Z,100140.34
2023-04-15T16:25:15.370Z,100141.94
2023-04-15T16:27:54.582Z,100144.34
2023-04-15T16:30:25.983Z,100152.53
2023-04-15T16:32:52.703Z,100152.31
2023-04-15T16:35:19.926Z,100159.69
2023-04-15T16:37:46.509Z,100152.31
2023-04-15T16:40:13.101Z,100160.00
2023-04-15T16:42:41.251Z,100165.63
2023-04-15T16:45:07.912Z,100174.38
2023-04-15T16:47:34.502Z,100168.66
2023-04-15T16:50:01.022Z,100173.28
2023-04-15T16:52:28.948Z,100183.34
2023-04-15T16:54:55.871Z,100168.94
2023-04-15T16:57:22.297Z,100182.25
2023-04-15T16:59:51.546Z,100179.53
2023-04-15T17:02:18.164Z,100183.06
2023-04-15T17:04:44.812Z,100188.78
2023-04-15T17:07:11.433Z,100190.91
2023-04-15T17:09:41.124Z,100191.50
2023-04-15T17:12:07.882Z,100198.56
2023-04-15T17:14:35.114Z,100198.38
2023-04-15T17:17:01.732Z,100195.94
2023-04-15T17:19:28.357Z,100203.63
2023-04-15T17:21:55.146Z,100203.13
2023-04-15T17:24:21.913Z,100205.06
2023-04-15T17:26:48.632Z,100215.94
2023-04-15T17:29:15.173Z,100207.28
2023-04-15T17:31:42.064Z,100215.72
2023-04-15T17:34:10.255Z,100221.16
2023-04-15T17:36:37.954Z,100225.00
2023-04-15T17:39:04.727Z,100228.81
2023-04-15T17:41:31.341Z,100234.56
2023-04-15T17:43:57.814Z,100240.31
2023-04-15T17:46:24.330Z,100237.59
2023-04-15T17:48:50.889Z,100246.38
2023-04-15T17:51:17.328Z,100246.97
2023-04-15T17:53:45.738Z,100253.53
2023-04-15T17:56:12.189Z,100252.41
2023-04-15T17:58:39.186Z,100258.97
2023-04-15T18:01:06.306Z,100264.50
2023-04-15T18:03:33.028Z,100270.28
2023-04-15T18:06:01.309Z,100273.78
2023-04-15T18:08:28.908Z,100271.06
2023-04-15T18:10:55.528Z,100272.66
2023-04-15T18:13:22.067Z,100280.34
2023-04-15T18:15:49.445Z,100275.00
2023-04-15T18:18:16.017Z,100272.78
2023-04-15T18:20:42.485Z,100282.84
2023-04-15T18:23:08.932Z,100292.63
2023-04-15T18:25:38.085Z,100287.78
2023-04-15T18:28:05.358Z,100295.13
2023-04-15T18:30:31.825Z,100296.75
2023-04-15T18:32:58.262Z,100308.72
2023-04-15T18:35:24.784Z,100308.22
2023-04-15T18:37:52.558Z,100316.38
2023-04-15T18:40:19.075Z,100315.84
2023-04-15T18:42:45.651Z,100323.53
2023-04-15T18:45:12.044Z,100325.16
2023-04-15T18:47:38.588Z,100325.16
2023-04-15T18:50:05.625Z,100327.53
2023-04-15T18:52:33.780Z,100334.41
2023-04-15T18:55:00.766Z,100331.69
2023-04-15T18:57:32.272Z,100337.59
2023-04-15T19:00:01.926Z,100343.38
2023-04-15T19:02:28.565Z,100344.19
2023-04-15T19:04:55.200Z,100342.56
2023-04-15T19:07:23.080Z,100345.88
2023-04-15T19:09:53.082Z,100350.22
2023-04-15T19:12:19.663Z,100350.22
2023-04-15T19:14:46.103Z,100362.19
2023-04-15T19:17:12.537Z,100367.31
2023-04-15T19:19:38.993Z,100368.44
2023-04-15T19:22:06.135Z,100373.84
2023-04-15T19:24:33.292Z,100374.66
2023-04-15T19:26:59.959Z,100375.78
2023-04-15T19:29:28.472Z,100380.09
2023-04-15T19:31:55.029Z,100380.41
2023-04-15T19:34:21.944Z,100380.69
2023-04-15T19:36:48.601Z,100380.19
2023-04-15T19:39:15.508Z,100381.00
2023-04-15T19:41:43.917Z,100386.44
2023-04-15T19:44:12.763Z,100391.56
2023-04-15T19:46:40.419Z,100390.75
2023-04-15T19:49:07.123Z,100397.31
2023-04-15T19:51:33.749Z,100389.75
2023-04-15T19:54:00.327Z,100387.53
2023-04-15T19:56:26.754Z,100393.78
2023-04-15T19:58:54.904Z,100395.38
2023-04-15T20:01:22.144Z,100392.44
2023-04-15T20:03:48.853Z,100381.28
2023-04-15T20:06:15.855Z,100388.94
2023-04-15T20:08:42.378Z,100385.63
2023-04-15T20:11:12.261Z,100391.56
2023-04-15T20:13:41.640Z,100390.53
2023-04-15T20:16:08.239Z,100390.53
2023-04-15T20:18:34.915Z,100386.22
2023-04-15T20:21:01.516Z,100391.06
2023-04-15T20:23:28.051Z,100393.78
2023-04-15T20:25:54.687Z,100394.69
2023-04-15T20:28:23.319Z,100402.34
2023-04-15T20:30:49.759Z,100406.84
2023-04-15T20:33:16.333Z,100400.94
2023-04-15T20:35:42.845Z,100406.56
2023-04-15T20:38:09.367Z,100401.13
2023-04-15T20:40:36.384Z,100411.00
2023-04-15T20:43:02.819Z,100407.47
2023-04-15T20:45:29.261Z,100410.66
2023-04-15T20:47:56.084Z,100408.28
2023-04-15T20:50:22.605Z,100413.72
2023-04-15T20:52:49.033Z,100408.06
2023-04-15T20:55:15.705Z,100408.06
2023-04-15T20:57:42.158Z,100407.78
2023-04-15T21:00:11.870Z,100414.31
2023-04-15T21:02:38.657Z,100415.41
2023-04-15T21:05:06.070Z,100414.59
2023-04-15T21:07:32.698Z,100422.00
2023-04-15T21:09:59.303Z,100417.84
2023-04-15T21:12:25.745Z,100422.69
2023-04-15T21:14:52.384Z,100428.69
2023-04-15T21:17:18.850Z,100431.41
2023-04-15T21:19:45.315Z,100429.22
2023-04-15T21:22:11.894Z,100434.66
2023-04-15T21:24:38.398Z,100437.03
2023-04-15T21:27:04.836Z,100438.97
2023-04-15T21:29:31.321Z,100446.00
2023-04-15T21:31:57.900Z,100443.78
2023-04-15T21:34:24.396Z,100442.19
2023-04-15T21:36:50.828Z,100453.06
2023-04-15T21:39:17.266Z,100446.31
2023-04-15T21:41:43.768Z,100455.78
2023-04-15T21:44:11.139Z,100460.41
2023-04-15T21:46:38.619Z,100452.75
2023-04-15T21:49:06.977Z,100457.38
2023-04-15T21:51:33.767Z,100465.84
2023-04-15T21:54:00.281Z,100465.03
2023-04-15T21:56:26.757Z,100463.91
2023-04-15T21:58:56.828Z,100463.63
2023-04-15T22:01:24.226Z,100472.88
2023-04-15T22:03:51.223Z,100470.47
2023-04-15T22:06:18.297Z,100471.25
2023-04-15T22:08:56.190Z,100475.91
2023-04-15T22:11:27.447Z,100478.31
2023-04-15T22:13:54.647Z,100480.03
2023-04-15T22:16:21.169Z,100490.63
2023-04-15T22:18:47.666Z,100484.03
2023-04-15T22:21:14.391Z,100498.44
2023-04-15T22:23:41.090Z,100491.38
2023-04-15T22:26:07.560Z,100499.25
2023-04-15T22:28:33.995Z,100498.16
2023-04-15T22:31:00.625Z,100499.25
2023-04-15T22:33:27.232Z,100501.38
2023-04-15T22:35:53.713Z,100508.50
2023-04-15T22:38:20.213Z,100511.53
2023-04-15T22:40:46.626Z,100512.66
2023-04-15T22:43:13.036Z,100516.47
2023-04-15T22:45:39.561Z,100510.75
2023-04-15T22:48:06.224Z,100521.91
2023-04-15T22:50:32.941Z,100516.47
2023-04-15T22:52:59.375Z,100515.66
2023-04-15T22:55:25.953Z,100521.09
2023-04-15T22:57:52.686Z,100521.38
2023-04-15T23:00:19.292Z,100529.25
2023-04-15T23:02:46.085Z,100531.16
2023-04-15T23:05:13.481Z,100526.31
2023-04-15T23:07:40.306Z,100535.25
2023-04-15T23:10:07.994Z,100529.81
2023-04-15T23:12:34.724Z,100540.69
2023-04-15T23:15:01.186Z,100542.59
2023-04-15T23:17:27.698Z,100540.16
2023-04-15T23:19:54.102Z,100541.00
2023-04-15T23:22:20.716Z,100540.16
2023-04-15T23:24:47.179Z,100529.28
2023-04-15T23:27:13.576Z,100535.81
2023-04-15T23:29:39.981Z,100533.66
2023-04-15T23:32:06.697Z,100542.34
2023-04-15T23:34:33.163Z,100548.31
2023-04-15T23:36:59.585Z,100546.97
2023-04-15T23:39:26.442Z,100542.97
2023-04-15T23:41:53.280Z,100541.53
2023-04-15T23:44:20.313Z,100548.06
2023-04-15T23:46:46.962Z,100556.22
2023-04-15T23:49:13.541Z,100542.97
2023-04-15T23:51:40.215Z,100551.59
2023-04-15T23:54:06.692Z,100549.22
2023-04-15T23:56:33.149Z,100545.97
2023-04-15T23:58:59.573Z,100552.22
